sensor_id;sensor_type;location;lat;lon;timestamp;pressure;altitude;pressure_sealevel;temperature;humidity
50774;BME280;36745;48.544;8.918;2022-12-16T00:02:59;96031.84;;;-1.15;95.09
50774;BME280;36745;48.544;8.918;2022-12-16T00:06:24;96029.94;;;-1.18;95.21
50774;BME280;36745;48.544;8.918;2022-12-16T00:09:44;96035.69;;;-1.13;95.84
50774;BME280;36745;48.544;8.918;2022-12-16T00:13:04;96033.09;;;-1.31;95.24
50774;BME280;36745;48.544;8.918;2022-12-16T00:16:24;96038.13;;;-1.33;95.79
50774;BME280;36745;48.544;8.918;2022-12-16T00:19:43;96038.03;;;-1.18;95.74
50774;BME280;36745;48.544;8.918;2022-12-16T00:23:03;96038.75;;;-1.07;95.04
50774;BME280;36745;48.544;8.918;2022-12-16T00:26:23;96041.53;;;-1.21;94.06
50774;BME280;36745;48.544;8.918;2022-12-16T00:29:43;96048.91;;;-1.29;94.75
50774;BME280;36745;48.544;8.918;2022-12-16T00:33:04;96042.72;;;-1.26;95.19
50774;BME280;36745;48.544;8.918;2022-12-16T00:36:24;96033.84;;;-1.27;95.44
50774;BME280;36745;48.544;8.918;2022-12-16T00:39:43;96032.63;;;-1.18;95.57
50774;BME280;36745;48.544;8.918;2022-12-16T00:43:03;96045.81;;;-1.28;95.86
50774;BME280;36745;48.544;8.918;2022-12-16T00:46:23;96041.22;;;-1.31;95.64
50774;BME280;36745;48.544;8.918;2022-12-16T00:49:43;96036.16;;;-1.29;95.98
50774;BME280;36745;48.544;8.918;2022-12-16T00:53:03;96041.97;;;-1.27;94.83
50774;BME280;36745;48.544;8.918;2022-12-16T00:56:23;96039.69;;;-1.35;95.03
50774;BME280;36745;48.544;8.918;2022-12-16T00:59:43;96050.53;;;-1.42;95.09
50774;BME280;36745;48.544;8.918;2022-12-16T01:03:04;96049.81;;;-1.57;95.31
50774;BME280;36745;48.544;8.918;2022-12-16T01:06:23;96061.38;;;-1.49;95.47
50774;BME280;36745;48.544;8.918;2022-12-16T01:09:43;96066.38;;;-1.48;95.66
50774;BME280;36745;48.544;8.918;2022-12-16T01:13:03;96055.19;;;-1.50;95.35
50774;BME280;36745;48.544;8.918;2022-12-16T01:16:23;96053.63;;;-1.51;95.31
50774;BME280;36745;48.544;8.918;2022-12-16T01:19:42;96061.78;;;-1.58;95.67
50774;BME280;36745;48.544;8.918;2022-12-16T01:23:02;96077.63;;;-1.60;95.88
50774;BME280;36745;48.544;8.918;2022-12-16T01:26:22;96083.78;;;-1.56;96.03
50774;BME280;36745;48.544;8.918;2022-12-16T01:29:42;96086.06;;;-1.51;96.21
50774;BME280;36745;48.544;8.918;2022-12-16T01:33:02;96087.59;;;-1.43;96.20
50774;BME280;36745;48.544;8.918;2022-12-16T01:36:22;96086.84;;;-1.47;96.00
50774;BME280;36745;48.544;8.918;2022-12-16T01:39:41;96103.47;;;-1.52;96.31
50774;BME280;36745;48.544;8.918;2022-12-16T01:43:01;96099.19;;;-1.49;97.02
50774;BME280;36745;48.544;8.918;2022-12-16T01:46:23;96105.34;;;-1.45;97.03
50774;BME280;36745;48.544;8.918;2022-12-16T01:49:49;96104.97;;;-1.44;96.77
50774;BME280;36745;48.544;8.918;2022-12-16T01:53:09;96103.06;;;-1.47;96.39
50774;BME280;36745;48.544;8.918;2022-12-16T01:56:30;96102.69;;;-1.56;95.82
50774;BME280;36745;48.544;8.918;2022-12-16T01:59:52;96108.47;;;-1.54;96.23
50774;BME280;36745;48.544;8.918;2022-12-16T02:03:13;96100.78;;;-1.66;96.30
50774;BME280;36745;48.544;8.918;2022-12-16T02:06:34;96109.25;;;-1.60;96.04
50774;BME280;36745;48.544;8.918;2022-12-16T02:09:54;96111.59;;;-1.59;96.05
50774;BME280;36745;48.544;8.918;2022-12-16T02:17:08;96114.66;;;-1.60;96.38
50774;BME280;36745;48.544;8.918;2022-12-16T02:21:03;96116.59;;;-1.54;96.25
50774;BME280;36745;48.544;8.918;2022-12-16T02:35:53;96135.13;;;-1.66;97.22
50774;BME280;36745;48.544;8.918;2022-12-16T02:43:55;96138.22;;;-1.61;97.06
50774;BME280;36745;48.544;8.918;2022-12-16T02:47:17;96134.75;;;-1.65;97.12
50774;BME280;36745;48.544;8.918;2022-12-16T02:50:46;96143.25;;;-1.66;97.20
50774;BME280;36745;48.544;8.918;2022-12-16T02:54:08;96144.81;;;-1.69;97.45
50774;BME280;36745;48.544;8.918;2022-12-16T03:01:17;96158.28;;;-1.55;98.36
50774;BME280;36745;48.544;8.918;2022-12-16T03:04:53;96158.69;;;-1.67;97.41
50774;BME280;36745;48.544;8.918;2022-12-16T03:08:22;96166.41;;;-1.69;97.90
50774;BME280;36745;48.544;8.918;2022-12-16T03:11:45;96163.31;;;-1.64;98.67
50774;BME280;36745;48.544;8.918;2022-12-16T03:15:07;96168.34;;;-1.59;98.52
50774;BME280;36745;48.544;8.918;2022-12-16T03:18:27;96164.84;;;-1.49;98.60
50774;BME280;36745;48.544;8.918;2022-12-16T03:21:54;96167.94;;;-1.57;97.80
50774;BME280;36745;48.544;8.918;2022-12-16T03:25:20;96162.56;;;-1.68;97.49
50774;BME280;36745;48.544;8.918;2022-12-16T03:28:51;96168.34;;;-1.66;97.28
50774;BME280;36745;48.544;8.918;2022-12-16T03:32:27;96169.47;;;-1.60;97.19
50774;BME280;36745;48.544;8.918;2022-12-16T03:35:54;96171.81;;;-1.62;97.22
50774;BME280;36745;48.544;8.918;2022-12-16T03:39:19;96180.69;;;-1.68;97.47
50774;BME280;36745;48.544;8.918;2022-12-16T03:42:41;96185.72;;;-1.63;97.79
50774;BME280;36745;48.544;8.918;2022-12-16T03:46:04;96186.47;;;-1.56;97.18
50774;BME280;36745;48.544;8.918;2022-12-16T03:49:25;96187.25;;;-1.62;97.00
50774;BME280;36745;48.544;8.918;2022-12-16T03:52:44;96188.78;;;-1.65;97.96
50774;BME280;36745;48.544;8.918;2022-12-16T03:56:04;96188.81;;;-1.68;97.40
50774;BME280;36745;48.544;8.918;2022-12-16T03:59:24;96187.25;;;-1.59;97.93
50774;BME280;36745;48.544;8.918;2022-12-16T04:02:44;96191.88;;;-1.63;97.81
50774;BME280;36745;48.544;8.918;2022-12-16T04:06:04;96195.34;;;-1.66;97.41
50774;BME280;36745;48.544;8.918;2022-12-16T04:09:24;96192.28;;;-1.68;97.14
50774;BME280;36745;48.544;8.918;2022-12-16T04:12:44;96198.84;;;-1.69;96.94
50774;BME280;36745;48.544;8.918;2022-12-16T04:16:25;96205.03;;;-1.68;97.51
50774;BME280;36745;48.544;8.918;2022-12-16T04:20:04;96210.81;;;-1.74;97.83
50774;BME280;36745;48.544;8.918;2022-12-16T04:23:48;96208.09;;;-1.63;98.29
50774;BME280;36745;48.544;8.918;2022-12-16T04:27:28;96214.25;;;-1.66;97.75
50774;BME280;36745;48.544;8.918;2022-12-16T04:30:48;96216.59;;;-1.68;97.60
50774;BME280;36745;48.544;8.918;2022-12-16T04:34:07;96222.78;;;-1.67;98.21
50774;BME280;36745;48.544;8.918;2022-12-16T04:37:45;96227.78;;;-1.59;97.88
50774;BME280;36745;48.544;8.918;2022-12-16T04:41:24;96216.59;;;-1.72;97.47
50774;BME280;36745;48.544;8.918;2022-12-16T04:45:02;96225.09;;;-1.73;96.90
50774;BME280;36745;48.544;8.918;2022-12-16T04:48:40;96233.97;;;-1.80;97.74
50774;BME280;36745;48.544;8.918;2022-12-16T04:52:19;96236.66;;;-1.69;97.43
50774;BME280;36745;48.544;8.918;2022-12-16T04:55:57;96235.13;;;-1.70;97.61
50774;BME280;36745;48.544;8.918;2022-12-16T04:59:36;96245.91;;;-1.77;97.77
50774;BME280;36745;48.544;8.918;2022-12-16T05:03:18;96249.00;;;-1.72;98.03
50774;BME280;36745;48.544;8.918;2022-12-16T05:06:57;96249.78;;;-1.71;98.55
50774;BME280;36745;48.544;8.918;2022-12-16T05:10:35;96261.38;;;-1.74;98.53
50774;BME280;36745;48.544;8.918;2022-12-16T05:14:13;96254.81;;;-1.73;98.11
50774;BME280;36745;48.544;8.918;2022-12-16T05:17:51;96275.25;;;-1.79;98.19
50774;BME280;36745;48.544;8.918;2022-12-16T05:21:30;96276.03;;;-1.72;97.59
50774;BME280;36745;48.544;8.918;2022-12-16T05:25:27;96276.03;;;-1.72;97.95
50774;BME280;36745;48.544;8.918;2022-12-16T05:29:05;96284.91;;;-1.71;98.19
50774;BME280;36745;48.544;8.918;2022-12-16T05:32:47;96296.09;;;-1.76;98.23
50774;BME280;36745;48.544;8.918;2022-12-16T05:36:26;96291.06;;;-1.71;98.56
50774;BME280;36745;48.544;8.918;2022-12-16T05:40:05;96305.38;;;-1.70;98.59
50774;BME280;36745;48.544;8.918;2022-12-16T05:43:43;96310.78;;;-1.63;98.71
50774;BME280;36745;48.544;8.918;2022-12-16T05:47:21;96307.69;;;-1.65;98.67
50774;BME280;36745;48.544;8.918;2022-12-16T05:51:00;96303.03;;;-1.75;98.42
50774;BME280;36745;48.544;8.918;2022-12-16T05:54:38;96305.34;;;-1.84;98.48
50774;BME280;36745;48.544;8.918;2022-12-16T05:58:16;96314.22;;;-1.84;98.52
50774;BME280;36745;48.544;8.918;2022-12-16T06:01:55;96317.69;;;-1.90;98.46
50774;BME280;36745;48.544;8.918;2022-12-16T06:05:33;96329.25;;;-1.86;98.86
50774;BME280;36745;48.544;8.918;2022-12-16T06:09:11;96337.75;;;-1.77;98.84
50774;BME280;36745;48.544;8.918;2022-12-16T06:12:50;96340.09;;;-1.79;98.62
50774;BME280;36745;48.544;8.918;2022-12-16T06:16:28;96353.22;;;-1.74;99.16
50774;BME280;36745;48.544;8.918;2022-12-16T06:20:07;96358.63;;;-1.67;98.39
50774;BME280;36745;48.544;8.918;2022-12-16T06:23:45;96370.97;;;-1.80;98.12
50774;BME280;36745;48.544;8.918;2022-12-16T06:27:23;96376.34;;;-1.80;98.59
50774;BME280;36745;48.544;8.918;2022-12-16T06:31:02;96377.53;;;-1.74;98.13
50774;BME280;36745;48.544;8.918;2022-12-16T06:34:43;96377.91;;;-1.79;97.78
50774;BME280;36745;48.544;8.918;2022-12-16T06:38:21;96393.31;;;-1.87;97.49
50774;BME280;36745;48.544;8.918;2022-12-16T06:42:00;96392.50;;;-2.01;97.10
50774;BME280;36745;48.544;8.918;2022-12-16T06:45:38;96403.72;;;-1.96;96.86
50774;BME280;36745;48.544;8.918;2022-12-16T06:49:16;96406.38;;;-2.06;96.68
50774;BME280;36745;48.544;8.918;2022-12-16T06:52:54;96417.59;;;-1.97;97.36
50774;BME280;36745;48.544;8.918;2022-12-16T06:56:33;96427.28;;;-1.86;96.88
50774;BME280;36745;48.544;8.918;2022-12-16T07:00:11;96427.66;;;-1.87;97.31
50774;BME280;36745;48.544;8.918;2022-12-16T07:03:49;96436.94;;;-1.85;96.72
50774;BME280;36745;48.544;8.918;2022-12-16T07:07:28;96435.75;;;-1.87;97.12
50774;BME280;36745;48.544;8.918;2022-12-16T07:11:06;96452.00;;;-1.84;97.34
50774;BME280;36745;48.544;8.918;2022-12-16T07:14:44;96460.47;;;-1.85;97.58
50774;BME280;36745;48.544;8.918;2022-12-16T07:18:23;96466.25;;;-1.87;97.38
50774;BME280;36745;48.544;8.918;2022-12-16T07:22:01;96479.00;;;-1.84;97.38
50774;BME280;36745;48.544;8.918;2022-12-16T07:25:40;96490.59;;;-1.80;97.36
50774;BME280;36745;48.544;8.918;2022-12-16T07:29:18;96485.19;;;-1.76;97.13
50774;BME280;36745;48.544;8.918;2022-12-16T07:32:56;96490.22;;;-1.78;96.84
50774;BME280;36745;48.544;8.918;2022-12-16T07:36:35;96496.75;;;-1.83;96.80
50774;BME280;36745;48.544;8.918;2022-12-16T07:40:13;96500.63;;;-1.80;96.62
50774;BME280;36745;48.544;8.918;2022-12-16T07:43:52;96506.81;;;-1.80;96.98
50774;BME280;36745;48.544;8.918;2022-12-16T07:47:45;96512.22;;;-1.80;96.40
50774;BME280;36745;48.544;8.918;2022-12-16T07:51:24;96518.81;;;-1.70;96.95
50774;BME280;36745;48.544;8.918;2022-12-16T07:55:03;96520.72;;;-1.67;96.80
50774;BME280;36745;48.544;8.918;2022-12-16T07:58:41;96527.69;;;-1.73;96.37
50774;BME280;36745;48.544;8.918;2022-12-16T08:02:20;96526.13;;;-1.74;96.57
50774;BME280;36745;48.544;8.918;2022-12-16T08:05:58;96530.03;;;-1.68;96.62
50774;BME280;36745;48.544;8.918;2022-12-16T08:09:36;96538.94;;;-1.57;96.63
50774;BME280;36745;48.544;8.918;2022-12-16T08:13:15;96546.97;;;-1.71;95.65
50774;BME280;36745;48.544;8.918;2022-12-16T08:16:53;96552.09;;;-1.52;96.26
50774;BME280;36745;48.544;8.918;2022-12-16T08:20:31;96564.88;;;-1.35;96.06
50774;BME280;36745;48.544;8.918;2022-12-16T08:24:10;96568.03;;;-1.22;95.49
50774;BME280;36745;48.544;8.918;2022-12-16T08:27:55;96574.97;;;-1.24;95.62
50774;BME280;36745;48.544;8.918;2022-12-16T08:31:33;96578.38;;;-1.38;94.87
50774;BME280;36745;48.544;8.918;2022-12-16T08:35:12;96579.56;;;-1.32;94.87
50774;BME280;36745;48.544;8.918;2022-12-16T08:38:50;96591.13;;;-1.39;94.60
50774;BME280;36745;48.544;8.918;2022-12-16T08:42:29;96592.31;;;-1.33;94.45
50774;BME280;36745;48.544;8.918;2022-12-16T08:46:07;96597.31;;;-1.42;94.12
50774;BME280;36745;48.544;8.918;2022-12-16T08:49:46;96592.72;;;-1.31;94.05
50774;BME280;36745;48.544;8.918;2022-12-16T08:53:25;96605.81;;;-1.36;94.56
50774;BME280;36745;48.544;8.918;2022-12-16T08:57:03;96615.91;;;-1.22;94.67
50774;BME280;36745;48.544;8.918;2022-12-16T09:00:42;96623.66;;;-1.17;94.51
50774;BME280;36745;48.544;8.918;2022-12-16T09:04:20;96622.53;;;-1.09;93.87
50774;BME280;36745;48.544;8.918;2022-12-16T09:08:01;96631.44;;;-1.09;94.12
50774;BME280;36745;48.544;8.918;2022-12-16T09:11:39;96632.59;;;-1.10;93.85
50774;BME280;36745;48.544;8.918;2022-12-16T09:15:18;96640.78;;;-0.92;94.19
50774;BME280;36745;48.544;8.918;2022-12-16T09:18:56;96638.47;;;-0.83;93.54
50774;BME280;36745;48.544;8.918;2022-12-16T09:22:34;96635.78;;;-0.83;93.35
50774;BME280;36745;48.544;8.918;2022-12-16T09:26:12;96641.97;;;-0.75;93.36
50774;BME280;36745;48.544;8.918;2022-12-16T09:29:51;96639.28;;;-0.72;92.92
50774;BME280;36745;48.544;8.918;2022-12-16T09:33:29;96651.66;;;-0.64;92.64
50774;BME280;36745;48.544;8.918;2022-12-16T09:37:08;96655.88;;;-0.77;91.33
50774;BME280;36745;48.544;8.918;2022-12-16T09:40:47;96659.34;;;-0.80;91.58
50774;BME280;36745;48.544;8.918;2022-12-16T09:48:39;96660.13;;;-0.79;91.25
50774;BME280;36745;48.544;8.918;2022-12-16T09:52:21;96669.81;;;-0.68;91.14
50774;BME280;36745;48.544;8.918;2022-12-16T09:56:03;96677.25;;;-0.44;91.45
50774;BME280;36745;48.544;8.918;2022-12-16T09:59:52;96679.94;;;-0.36;90.88
50774;BME280;36745;48.544;8.918;2022-12-16T10:03:37;96681.88;;;-0.55;89.52
50774;BME280;36745;48.544;8.918;2022-12-16T10:07:20;96685.34;;;-0.54;89.62
50774;BME280;36745;48.544;8.918;2022-12-16T10:11:34;96679.56;;;-0.46;89.44
50774;BME280;36745;48.544;8.918;2022-12-16T10:15:43;96682.66;;;-0.44;89.51
50774;BME280;36745;48.544;8.918;2022-12-16T10:23:19;96691.94;;;-0.45;88.90
50774;BME280;36745;48.544;8.918;2022-12-16T10:27:07;96683.03;;;-0.42;89.48
50774;BME280;36745;48.544;8.918;2022-12-16T10:30:49;96681.09;;;-0.37;89.24
50774;BME280;36745;48.544;8.918;2022-12-16T10:34:29;96679.16;;;-0.37;88.20
50774;BME280;36745;48.544;8.918;2022-12-16T10:38:17;96684.97;;;-0.49;87.01
50774;BME280;36745;48.544;8.918;2022-12-16T10:41:59;96685.72;;;-0.52;87.83
50774;BME280;36745;48.544;8.918;2022-12-16T10:45:43;96683.41;;;-0.47;87.77
50774;BME280;36745;48.544;8.918;2022-12-16T10:49:23;96684.22;;;-0.39;87.92
50774;BME280;36745;48.544;8.918;2022-12-16T10:53:24;96685.78;;;-0.27;87.39
50774;BME280;36745;48.544;8.918;2022-12-16T11:01:22;96701.22;;;-0.46;85.27
50774;BME280;36745;48.544;8.918;2022-12-16T11:05:01;96693.47;;;-0.36;86.05
50774;BME280;36745;48.544;8.918;2022-12-16T11:09:24;96704.34;;;-0.29;85.72
50774;BME280;36745;48.544;8.918;2022-12-16T11:13:18;96712.88;;;-0.13;85.61
50774;BME280;36745;48.544;8.918;2022-12-16T11:21:17;96703.22;;;0.00;84.56
50774;BME280;36745;48.544;8.918;2022-12-16T11:28:44;96702.81;;;-0.23;82.91
50774;BME280;36745;48.544;8.918;2022-12-16T11:32:24;96703.22;;;-0.07;83.49
50774;BME280;36745;48.544;8.918;2022-12-16T11:36:10;96712.88;;;0.01;82.52
50774;BME280;36745;48.544;8.918;2022-12-16T11:39:51;96710.56;;;0.03;81.85
50774;BME280;36745;48.544;8.918;2022-12-16T11:43:31;96716.78;;;0.14;81.53
50774;BME280;36745;48.544;8.918;2022-12-16T11:47:35;96709.81;;;0.03;81.39
50774;BME280;36745;48.544;8.918;2022-12-16T11:51:15;96716.78;;;0.21;80.72
50774;BME280;36745;48.544;8.918;2022-12-16T11:55:18;96723.34;;;0.06;79.88
50774;BME280;36745;48.544;8.918;2022-12-16T11:59:02;96724.53;;;0.19;80.97
50774;BME280;36745;48.544;8.918;2022-12-16T12:03:10;96728.41;;;0.47;81.40
50774;BME280;36745;48.544;8.918;2022-12-16T12:11:12;96734.22;;;0.59;80.42
50774;BME280;36745;48.544;8.918;2022-12-16T12:15:34;96733.78;;;0.68;79.25
50774;BME280;36745;48.544;8.918;2022-12-16T12:19:13;96734.97;;;0.74;79.84
50774;BME280;36745;48.544;8.918;2022-12-16T12:22:57;96750.44;;;0.84;78.97
50774;BME280;36745;48.544;8.918;2022-12-16T12:26:47;96758.59;;;0.63;77.60
50774;BME280;36745;48.544;8.918;2022-12-16T12:30:37;96750.84;;;0.58;77.24
50774;BME280;36745;48.544;8.918;2022-12-16T12:38:14;96764.81;;;0.63;77.55
50774;BME280;36745;48.544;8.918;2022-12-16T12:46:05;96769.47;;;0.70;76.40
50774;BME280;36745;48.544;8.918;2022-12-16T12:57:18;96765.19;;;0.48;77.02
50774;BME280;36745;48.544;8.918;2022-12-16T13:01:00;96767.50;;;0.46;76.08
50774;BME280;36745;48.544;8.918;2022-12-16T13:04:40;96771.78;;;0.43;75.17
50774;BME280;36745;48.544;8.918;2022-12-16T13:08:41;96772.53;;;0.43;76.12
50774;BME280;36745;48.544;8.918;2022-12-16T13:12:33;96771.38;;;0.55;76.41
50774;BME280;36745;48.544;8.918;2022-12-16T13:28:00;96800.03;;;0.38;75.27
50774;BME280;36745;48.544;8.918;2022-12-16T13:32:14;96804.72;;;0.49;75.66
50774;BME280;36745;48.544;8.918;2022-12-16T13:35:58;96812.09;;;0.59;75.75
50774;BME280;36745;48.544;8.918;2022-12-16T13:39:40;96815.16;;;0.57;75.48
50774;BME280;36745;48.544;8.918;2022-12-16T13:43:52;96831.44;;;0.61;75.84
50774;BME280;36745;48.544;8.918;2022-12-16T13:55:19;96827.94;;;0.43;75.61
50774;BME280;36745;48.544;8.918;2022-12-16T13:59:05;96839.91;;;0.27;75.06
50774;BME280;36745;48.544;8.918;2022-12-16T14:02:50;96845.34;;;0.34;75.83
50774;BME280;36745;48.544;8.918;2022-12-16T14:06:30;96851.50;;;0.10;75.52
50774;BME280;36745;48.544;8.918;2022-12-16T14:14:19;96870.88;;;0.19;76.01
50774;BME280;36745;48.544;8.918;2022-12-16T14:18:09;96880.94;;;0.19;74.43
50774;BME280;36745;48.544;8.918;2022-12-16T14:26:00;96899.75;;;-0.20;74.33
50774;BME280;36745;48.544;8.918;2022-12-16T14:29:42;96903.13;;;-0.41;73.85
50774;BME280;36745;48.544;8.918;2022-12-16T14:33:23;96907.75;;;-0.49;74.34
50774;BME280;36745;48.544;8.918;2022-12-16T14:37:12;96920.53;;;-0.42;75.02
50774;BME280;36745;48.544;8.918;2022-12-16T14:40:50;96924.78;;;-0.45;75.01
50774;BME280;36745;48.544;8.918;2022-12-16T14:44:29;96926.34;;;-0.40;75.45
50774;BME280;36745;48.544;8.918;2022-12-16T14:51:53;96938.69;;;-0.50;75.13
50774;BME280;36745;48.544;8.918;2022-12-16T14:55:33;96934.00;;;-0.56;75.01
50774;BME280;36745;48.544;8.918;2022-12-16T14:59:17;96943.53;;;-0.73;75.61
50774;BME280;36745;48.544;8.918;2022-12-16T15:02:58;96948.59;;;-0.71;75.78
50774;BME280;36745;48.544;8.918;2022-12-16T15:06:40;96943.91;;;-0.74;75.82
50774;BME280;36745;48.544;8.918;2022-12-16T15:10:21;96957.00;;;-0.80;76.26
50774;BME280;36745;48.544;8.918;2022-12-16T15:14:02;96958.56;;;-0.79;76.54
50774;BME280;36745;48.544;8.918;2022-12-16T15:17:53;96962.31;;;-0.94;75.48
50774;BME280;36745;48.544;8.918;2022-12-16T15:21:33;96962.63;;;-1.03;74.12
50774;BME280;36745;48.544;8.918;2022-12-16T15:25:23;96977.56;;;-1.16;75.71
50774;BME280;36745;48.544;8.918;2022-12-16T15:29:03;96977.50;;;-1.23;75.37
50774;BME280;36745;48.544;8.918;2022-12-16T15:32:42;96978.69;;;-1.20;75.95
50774;BME280;36745;48.544;8.918;2022-12-16T15:40:02;96992.81;;;-1.34;76.70
50774;BME280;36745;48.544;8.918;2022-12-16T15:43:44;97001.00;;;-1.31;76.82
50774;BME280;36745;48.544;8.918;2022-12-16T15:47:30;97011.53;;;-1.18;76.60
50774;BME280;36745;48.544;8.918;2022-12-16T15:51:31;97004.09;;;-1.29;76.00
50774;BME280;36745;48.544;8.918;2022-12-16T15:55:37;97010.09;;;-1.46;76.57
50774;BME280;36745;48.544;8.918;2022-12-16T15:59:31;97023.22;;;-1.44;76.67
50774;BME280;36745;48.544;8.918;2022-12-16T16:03:24;97040.97;;;-1.47;77.08
50774;BME280;36745;48.544;8.918;2022-12-16T16:07:03;97041.69;;;-1.50;77.36
50774;BME280;36745;48.544;8.918;2022-12-16T16:10:42;97051.41;;;-1.45;77.68
50774;BME280;36745;48.544;8.918;2022-12-16T16:14:21;97042.94;;;-1.44;76.85
50774;BME280;36745;48.544;8.918;2022-12-16T16:18:03;97056.66;;;-1.59;77.45
50774;BME280;36745;48.544;8.918;2022-12-16T16:21:42;97069.47;;;-1.53;77.39
50774;BME280;36745;48.544;8.918;2022-12-16T16:25:21;97067.50;;;-1.56;77.90
50774;BME280;36745;48.544;8.918;2022-12-16T16:29:00;97075.28;;;-1.51;77.61
50774;BME280;36745;48.544;8.918;2022-12-16T16:32:38;97077.13;;;-1.58;77.34
50774;BME280;36745;48.544;8.918;2022-12-16T16:36:17;97080.94;;;-1.63;77.22
50774;BME280;36745;48.544;8.918;2022-12-16T16:39:55;97085.19;;;-1.62;77.99
50774;BME280;36745;48.544;8.918;2022-12-16T16:43:34;97085.00;;;-1.76;78.67
50774;BME280;36745;48.544;8.918;2022-12-16T16:47:15;97088.00;;;-1.81;78.53
50774;BME280;36745;48.544;8.918;2022-12-16T16:50:56;97096.44;;;-1.86;78.66
50774;BME280;36745;48.544;8.918;2022-12-16T16:54:38;97098.72;;;-1.88;79.04
50774;BME280;36745;48.544;8.918;2022-12-16T16:58:25;97098.34;;;-1.87;79.10
50774;BME280;36745;48.544;8.918;2022-12-16T17:02:16;97102.63;;;-1.86;79.61
50774;BME280;36745;48.544;8.918;2022-12-16T17:05:55;97117.03;;;-1.78;79.76
50774;BME280;36745;48.544;8.918;2022-12-16T17:09:33;97129.69;;;-1.82;79.83
50774;BME280;36745;48.544;8.918;2022-12-16T17:13:11;97135.63;;;-1.73;79.86
50774;BME280;36745;48.544;8.918;2022-12-16T17:16:50;97147.03;;;-1.83;80.01
50774;BME280;36745;48.544;8.918;2022-12-16T17:20:28;97151.19;;;-1.89;79.68
50774;BME280;36745;48.544;8.918;2022-12-16T17:24:06;97163.63;;;-1.85;80.25
50774;BME280;36745;48.544;8.918;2022-12-16T17:27:45;97170.63;;;-1.80;80.06
50774;BME280;36745;48.544;8.918;2022-12-16T17:31:23;97162.16;;;-1.79;79.99
50774;BME280;36745;48.544;8.918;2022-12-16T17:35:01;97162.84;;;-1.85;80.09
50774;BME280;36745;48.544;8.918;2022-12-16T17:38:41;97167.41;;;-1.89;79.63
50774;BME280;36745;48.544;8.918;2022-12-16T17:42:20;97168.94;;;-1.88;79.63
50774;BME280;36745;48.544;8.918;2022-12-16T17:46:00;97170.00;;;-1.96;80.07
50774;BME280;36745;48.544;8.918;2022-12-16T17:49:38;97178.81;;;-1.99;80.47
50774;BME280;36745;48.544;8.918;2022-12-16T17:53:16;97183.63;;;-1.89;80.64
50774;BME280;36745;48.544;8.918;2022-12-16T17:56:55;97180.59;;;-1.84;80.64
50774;BME280;36745;48.544;8.918;2022-12-16T18:00:36;97197.53;;;-1.87;80.58
50774;BME280;36745;48.544;8.918;2022-12-16T18:04:14;97200.53;;;-1.92;81.10
50774;BME280;36745;48.544;8.918;2022-12-16T18:07:53;97194.50;;;-1.82;80.43
50774;BME280;36745;48.544;8.918;2022-12-16T18:11:31;97201.97;;;-1.98;81.12
50774;BME280;36745;48.544;8.918;2022-12-16T18:15:10;97202.94;;;-1.87;81.05
50774;BME280;36745;48.544;8.918;2022-12-16T18:18:49;97206.75;;;-1.88;81.16
50774;BME280;36745;48.544;8.918;2022-12-16T18:22:27;97207.47;;;-1.95;81.90
50774;BME280;36745;48.544;8.918;2022-12-16T18:26:07;97216.13;;;-1.82;81.28
50774;BME280;36745;48.544;8.918;2022-12-16T18:29:46;97217.25;;;-1.83;81.60
50774;BME280;36745;48.544;8.918;2022-12-16T18:33:24;97229.94;;;-1.87;81.75
50774;BME280;36745;48.544;8.918;2022-12-16T18:37:03;97222.88;;;-1.95;82.09
50774;BME280;36745;48.544;8.918;2022-12-16T18:40:41;97237.41;;;-1.81;81.95
50774;BME280;36745;48.544;8.918;2022-12-16T18:44:19;97239.19;;;-1.88;82.04
50774;BME280;36745;48.544;8.918;2022-12-16T18:47:58;97252.22;;;-1.94;82.09
50774;BME280;36745;48.544;8.918;2022-12-16T18:51:36;97260.13;;;-2.04;82.66
50774;BME280;36745;48.544;8.918;2022-12-16T18:55:15;97260.56;;;-2.02;83.14
50774;BME280;36745;48.544;8.918;2022-12-16T18:58:53;97253.38;;;-1.95;82.73
50774;BME280;36745;48.544;8.918;2022-12-16T19:02:31;97258.41;;;-1.93;82.69
50774;BME280;36745;48.544;8.918;2022-12-16T19:06:11;97266.28;;;-1.85;82.94
50774;BME280;36745;48.544;8.918;2022-12-16T19:09:49;97279.41;;;-1.83;82.96
50774;BME280;36745;48.544;8.918;2022-12-16T19:13:27;97289.38;;;-1.87;83.02
50774;BME280;36745;48.544;8.918;2022-12-16T19:17:06;97284.75;;;-1.87;82.92
50774;BME280;36745;48.544;8.918;2022-12-16T19:20:52;97283.16;;;-1.91;83.10
50774;BME280;36745;48.544;8.918;2022-12-16T19:24:31;97293.75;;;-2.02;83.47
50774;BME280;36745;48.544;8.918;2022-12-16T19:28:13;97293.63;;;-2.09;83.43
50774;BME280;36745;48.544;8.918;2022-12-16T19:31:51;97292.34;;;-2.15;83.73
50774;BME280;36745;48.544;8.918;2022-12-16T19:35:30;97306.56;;;-2.18;83.52
50774;BME280;36745;48.544;8.918;2022-12-16T19:39:08;97301.13;;;-2.22;84.15
50774;BME280;36745;48.544;8.918;2022-12-16T19:42:46;97311.34;;;-2.12;84.16
50774;BME280;36745;48.544;8.918;2022-12-16T19:46:25;97330.53;;;-2.17;84.00
50774;BME280;36745;48.544;8.918;2022-12-16T19:50:06;97338.63;;;-2.36;84.53
50774;BME280;36745;48.544;8.918;2022-12-16T19:53:45;97340.41;;;-2.24;84.43
50774;BME280;36745;48.544;8.918;2022-12-16T19:57:23;97338.78;;;-2.29;84.93
50774;BME280;36745;48.544;8.918;2022-12-16T20:01:02;97343.31;;;-2.33;84.47
50774;BME280;36745;48.544;8.918;2022-12-16T20:04:45;97346.38;;;-2.34;85.16
50774;BME280;36745;48.544;8.918;2022-12-16T20:08:23;97355.16;;;-2.37;85.76
50774;BME280;36745;48.544;8.918;2022-12-16T20:12:05;97361.22;;;-2.25;85.81
50774;BME280;36745;48.544;8.918;2022-12-16T20:15:43;97366.56;;;-2.28;85.48
50774;BME280;36745;48.544;8.918;2022-12-16T20:19:21;97361.84;;;-2.31;86.07
50774;BME280;36745;48.544;8.918;2022-12-16T20:23:00;97363.34;;;-2.34;86.21
50774;BME280;36745;48.544;8.918;2022-12-16T20:26:38;97372.00;;;-2.25;86.69
50774;BME280;36745;48.544;8.918;2022-12-16T20:30:27;97373.88;;;-2.29;86.75
50774;BME280;36745;48.544;8.918;2022-12-16T20:34:05;97378.72;;;-2.38;86.73
50774;BME280;36745;48.544;8.918;2022-12-16T20:37:44;97390.19;;;-2.41;86.34
50774;BME280;36745;48.544;8.918;2022-12-16T20:41:22;97394.16;;;-2.54;86.36
50774;BME280;36745;48.544;8.918;2022-12-16T20:45:00;97391.81;;;-2.56;87.18
50774;BME280;36745;48.544;8.918;2022-12-16T20:48:39;97402.03;;;-2.65;86.61
50774;BME280;36745;48.544;8.918;2022-12-16T20:52:17;97398.81;;;-2.70;87.15
50774;BME280;36745;48.544;8.918;2022-12-16T20:55:59;97403.81;;;-2.53;86.83